Aviation Digital Data Service (ADDS)

Output produced by METARs form (2133 UTC 24 March 2019)
found at http://www.aviationweather.gov/metar/data/
 
TAF SLCO 241600Z 2418/2518 31008KT 9999 SCT017 FEW020CB BKN080 TX32/ 2420Z
TN22/2510Z 
     TEMPO 2419/2422 7000 SHRA 
     BECMG 2423/2503 00000KT SCT012 BKN070
       
TAF SLCB 241600Z 2418/2518 24010KT 9999 FEW033 TX29/2419Z TN14/2510Z 
     TEMPO 2421/2423 06012KT FEW033CB 
     BECMG 2423/2501 14010KT FEW027 FEW030CB SCT070 
     PROB30 
     TEMPO 2502/2504 VCTS 
     BECMG 2505/2506 00000KT FEW027 BKN070
       
TAF SLLP 241600Z 2418/2518 13008KT 9999 SCT017 FEW020CB TX18/2420Z TNM02/2510Z 
     TEMPO 2419/2422 8000 VCTSSH 
     BECMG 2423/2501 07005KT SCT013 
     TEMPO 2506/2510 3000E VCFG FEW002
       
TAF SLPS 241050Z 2412/2512 09008KT 9999 SCT020 TX36/2419Z TN21/2511Z 
     TEMPO 2419/2423 FEW030CB 
     BECMG 2423/2501 SCT020 BKN070 
     TEMPO 2509/2512 5000 SHRA FEW030CB
       
TAF SLET 241550Z 2418/2518 33010KT 9999 BKN023 FEW025TCU TX33/2419Z TN20/2511Z 
     BECMG 2500/2502 18010KT 8000 RA SCT015 BKN070 
     TEMPO 2507/ 2510 5000 RA BKN015 OVC070 
     BECMG 2515/2517 VRB02KT 9999 NSW SCT023 BKN070
       
TAF SLVR 241550Z 2418/2518 35010KT 9999 BKN023 FEW025TCU TX33/2419Z TN20/2511Z 
     BECMG 2500/2502 18010KT 8000 RA SCT015 BKN070 
     TEMPO 2507/ 2510 5000 RA BKN015 OVC070 
     BECMG 2515/2517 VRB02KT 9999 NSW SCT023 BKN070
       
TAF SLTJ 241600Z 2418/2518 13010KT 9999 SCT033 FEW036CB TX28/2419Z TN12/2510Z 
     BECMG 2501/2503 00000KT BKN025 BKN070
       
TAF SLTR 241600Z 2418/2518 35008KT 9999 SCT017 SCT080 TX32/2420Z TN21 /2510Z 
     TEMPO 2420/2422 FEW020 FEW023CB 
     BECMG 2423/2502 00000KT SCT012 SCT070